Latest Weather Observations for Mildura

IDN60801

Issued at 10:32 am EST Wednesday 26 July 2017 (issued every 30 minutes, with the page automatically refreshed every 10 minutes)

About weather observations | Map of weather stations | Latest weather observations for NSW | Other Formats
Station Details ID: 076031 Name: MILDURA AIRPORT Lat: -34.24 Lon: 142.09 Height: 50.0 m
Data from the previous 72 hours. | See also: Recent months at Mildura
Date/Time
EST
Temp
°C
App
Temp
°C
Dew
Point
°C
Rel
Hum
%
Delta-T
°C
Wind Press
QNH
hPa
Press
MSL
hPa
Rain since
9am
mm
Dir  Spd
km/h
Gust
km/h
Spd
kts
Gust
kts
26/10:30am 12.8 10.2 9.3 79 1.8 W 13 20 7 11 1024.2 1024.3 0.0
26/10:00am 11.5 8.7 8.5 82 1.5 W 13 19 7 10 1024.0 1024.1 0.0
26/09:30am 10.6 7.8 8.4 86 1.1 W 13 19 7 10 1023.8 1023.9 0.0
26/09:00am 9.6 6.7 8.0 90 0.8 WNW 13 19 7 10 1023.5 1023.6 0.8
26/08:30am 8.1 5.6 8.0 99 0.0 WNW 11 15 6 8 1023.3 1023.4 0.8
26/08:00am 6.5 3.6 6.4 99 0.0 NW 11 13 6 7 1022.7 1022.8 0.8
26/07:30am 5.7 3.0 5.6 99 0.0 NW 9 11 5 6 1022.5 1022.6 0.8
26/07:00am 6.1 4.0 6.0 99 0.0 NNW 6 9 3 5 1022.1 1022.2 0.8
26/06:30am 6.3 3.7 6.0 98 0.1 WNW 9 11 5 6 1021.7 1021.8 0.8
26/06:00am 6.5 3.5 6.2 98 0.1 WNW 11 15 6 8 1021.3 1021.4 0.8
26/05:30am 6.4 3.7 5.8 96 0.3 WNW 9 13 5 7 1021.0 1021.0 0.8
26/05:00am 7.0 4.1 6.4 96 0.3 WNW 11 15 6 8 1020.6 1020.6 0.8
26/04:30am 7.3 4.8 6.6 95 0.3 WNW 9 13 5 7 1020.4 1020.4 0.8
26/04:00am 7.7 4.8 6.6 93 0.5 WNW 11 17 6 9 1020.4 1020.4 0.8
26/03:30am 7.9 5.4 6.7 92 0.6 WNW 9 13 5 7 1020.3 1020.3 0.8
26/03:00am 8.6 5.9 7.2 91 0.7 WNW 11 15 6 8 1020.2 1020.2 0.8
26/02:30am 8.2 5.4 7.0 92 0.6 WNW 11 13 6 7 1020.0 1020.0 0.8
26/02:00am 8.8 6.1 7.3 90 0.7 WNW 11 13 6 7 1020.1 1020.1 0.8
26/01:30am 9.0 6.6 7.1 88 0.9 WNW 9 13 5 7 1020.0 1020.0 0.8
26/01:00am 10.0 7.0 7.6 85 1.1 WNW 13 17 7 9 1020.1 1020.1 0.8
26/12:30am 9.8 7.6 7.7 87 1.0 WNW 9 11 5 6 1020.2 1020.2 0.8
26/12:00am 10.3 7.7 7.9 85 1.2 WNW 11 13 6 7 1020.3 1020.3 0.8
 
Date/Time
EST
Temp
°C
App
Temp
°C
Dew
Point
°C
Rel
Hum
%
Delta-T
°C
Wind Press
QNH
hPa
Press
MSL
hPa
Rain since
9am
mm
Dir  Spd
km/h
Gust
km/h
Spd
kts
Gust
kts
25/11:30pm 11.1 8.2 8.3 83 1.4 WNW 13 19 7 10 1020.3 1020.3 0.8
25/11:00pm 11.6 9.2 8.8 83 1.4 WNW 11 17 6 9 1019.7 1019.7 0.8
25/10:30pm 12.1 9.9 9.5 84 1.3 WNW 11 15 6 8 1019.4 1019.4 0.8
25/10:00pm 12.6 10.4 9.2 80 1.7 NW 11 17 6 9 1019.3 1019.3 0.8
25/09:30pm 13.3 11.9 9.4 77 2.0 W 7 15 4 8 1019.1 1019.1 0.8
25/09:00pm 13.9 11.2 9.1 73 2.4 WNW 13 20 7 11 1018.8 1018.8 0.8
25/08:30pm 13.7 10.9 9.9 78 2.0 NW 15 22 8 12 1018.8 1018.8 0.6
25/08:00pm 13.9 11.4 9.7 76 2.2 NW 13 19 7 10 1019.1 1019.1 0.6
25/07:30pm 14.1 11.9 9.5 74 2.4 NNW 11 17 6 9 1018.1 1018.1 0.6
25/07:00pm 14.1 11.9 9.3 73 2.4 WNW 11 17 6 9 1018.6 1018.6 0.4
25/06:30pm 14.5 12.2 9.1 70 2.8 NNW 11 17 6 9 1017.7 1017.7 0.4
25/06:00pm 14.9 10.8 8.8 67 3.1 WNW 20 28 11 15 1018.6 1018.6 0.4
25/05:30pm 15.2 9.3 8.9 66 3.2 NW 30 46 16 25 1018.7 1018.7 0.4
25/05:00pm 18.6 12.7 4.0 38 6.9 W 24 41 13 22 1018.4 1018.4 0.0
25/04:30pm 19.3 13.9 4.3 37 7.2 W 22 39 12 21 1017.8 1017.8 0.0
25/04:00pm 20.5 14.9 3.3 32 8.1 WNW 22 33 12 18 1016.9 1017.0 0.0
25/03:30pm 21.4 16.0 2.2 28 9.0 W 20 32 11 17 1016.8 1016.9 0.0
25/03:00pm 22.3 17.2 0.8 24 9.8 W 17 28 9 15 1016.1 1016.2 0.0
25/02:30pm 23.0 17.3 0.8 23 10.2 WNW 20 35 11 19 1016.1 1016.2 0.0
25/02:00pm 23.1 17.0 0.2 22 10.4 WNW 22 35 12 19 1016.0 1016.1 0.0
25/01:30pm 23.5 18.0 0.6 22 10.6 WNW 19 28 10 15 1016.5 1016.6 0.0
25/01:00pm 23.8 18.3 0.8 22 10.6 NW 19 30 10 16 1016.8 1016.9 0.0
25/12:30pm 22.6 17.2 1.0 24 10.0 NW 19 28 10 15 1017.5 1017.6 0.0
25/12:00pm 21.7 16.4 1.9 27 9.2 NW 19 28 10 15 1018.3 1018.3 0.0
25/11:30am 20.1 13.7 1.0 28 8.6 NW 24 35 13 19 1019.0 1019.0 0.0
25/11:00am 19.7 14.2 1.7 30 8.2 NW 20 32 11 17 1019.3 1019.3 0.0
25/10:30am 17.8 12.4 1.3 33 7.4 NNW 19 32 10 17 1019.5 1019.5 0.0
25/10:00am 15.7 10.2 1.8 39 6.1 NNW 20 30 11 16 1019.7 1019.7 0.0
25/09:30am 14.2 8.7 2.1 44 5.3 NNW 20 32 11 17 1019.7 1019.7 0.0
25/09:00am 12.9 8.0 2.2 48 4.6 N 17 26 9 14 1019.6 1019.6 0.0
25/08:30am 10.9 6.8 2.5 56 3.6 N 13 17 7 9 1019.4 1019.4 0.0
25/08:00am 8.8 4.8 2.6 65 2.6 N 13 17 7 9 1019.2 1019.2 0.0
25/07:30am 7.4 3.8 2.9 73 1.9 N 11 15 6 8 1019.3 1019.3 0.0
25/07:00am 6.3 2.6 2.4 76 1.6 NNE 11 13 6 7 1019.4 1019.4 0.0
25/06:30am 6.3 2.3 2.6 77 1.5 NNE 13 15 7 8 1019.2 1019.2 0.0
25/06:00am 6.1 2.0 2.4 77 1.5 NNE 13 15 7 8 1019.1 1019.1 0.0
25/05:30am 5.9 2.2 2.2 77 1.5 NNE 11 13 6 7 1019.0 1019.0 0.0
25/05:00am 6.0 2.3 2.3 77 1.5 NNE 11 13 6 7 1019.1 1019.1 0.0
25/04:30am 6.0 2.3 2.1 76 1.6 NNE 11 13 6 7 1019.2 1019.2 0.0
25/04:00am 6.0 3.0 2.3 77 1.5 NE 7 9 4 5 1019.4 1019.4 0.0
25/03:30am 7.4 4.1 2.7 72 2.0 NE 9 11 5 6 1019.7 1019.7 0.0
25/03:00am 7.5 4.3 3.0 73 1.9 NE 9 11 5 6 1019.7 1019.7 0.0
25/02:30am 7.1 3.9 3.0 75 1.7 NNE 9 11 5 6 1019.9 1019.9 0.0
25/02:00am 7.6 4.9 3.5 75 1.7 NNE 7 9 4 5 1020.1 1020.1 0.0
25/01:30am 7.6 4.0 2.9 72 2.0 N 11 13 6 7 1020.3 1020.3 0.0
25/01:00am 7.8 4.8 4.2 78 1.6 N 9 9 5 5 1020.4 1020.4 0.0
25/12:30am 8.5 5.6 4.9 78 1.6 N 9 11 5 6 1020.6 1020.6 0.0
25/12:00am 8.1 4.7 3.8 74 1.9 NNE 11 13 6 7 1020.7 1020.7 0.0
 
Date/Time
EST
Temp
°C
App
Temp
°C
Dew
Point
°C
Rel
Hum
%
Delta-T
°C
Wind Press
QNH
hPa
Press
MSL
hPa
Rain since
9am
mm
Dir  Spd
km/h
Gust
km/h
Spd
kts
Gust
kts
24/11:30pm 8.2 5.0 3.3 71 2.1 NE 9 11 5 6 1020.7 1020.7 0.0
24/11:00pm 8.9 5.8 3.7 70 2.3 NE 9 9 5 5 1020.8 1020.8 0.0
24/10:30pm 9.1 6.5 4.3 72 2.1 NE 7 9 4 5 1020.7 1020.7 0.0
24/10:00pm 9.3 6.3 3.9 69 2.4 NE 9 11 5 6 1020.9 1020.9 0.0
24/09:30pm 9.7 6.7 4.3 69 2.4 NNE 9 9 5 5 1020.9 1020.9 0.0
24/09:00pm 10.5 7.7 5.3 70 2.4 NNE 9 9 5 5 1020.9 1020.9 0.0
24/08:30pm 10.8 8.3 4.7 66 2.8 NNE 7 9 4 5 1020.8 1020.8 0.0
24/08:00pm 11.5 8.9 4.3 61 3.2 NNE 7 9 4 5 1020.8 1020.8 0.0
24/07:30pm 12.2 9.6 4.4 59 3.5 NNE 7 9 4 5 1020.6 1020.6 0.0
24/07:00pm 11.5 9.0 3.5 58 3.5 NNE 6 7 3 4 1020.6 1020.6 0.0
24/06:30pm 13.1 10.6 3.5 52 4.3 N 6 7 3 4 1020.3 1020.3 0.0
24/06:00pm 14.9 12.4 4.0 48 5.0 NNW 6 7 3 4 1020.2 1020.2 0.0
24/05:30pm 17.0 14.0 4.0 42 6.1 NNW 9 13 5 7 1020.1 1020.1 0.0
24/05:00pm 18.2 14.0 3.7 38 6.8 NW 15 24 8 13 1020.0 1020.0 0.0
24/04:30pm 18.5 13.9 3.9 38 6.9 NNW 17 26 9 14 1020.1 1020.1 0.0
24/04:00pm 18.5 14.3 3.9 38 6.9 NW 15 24 8 13 1020.3 1020.3 0.0
24/03:30pm 18.5 15.2 4.7 40 6.6 NNW 11 17 6 9 1020.6 1020.6 0.0
24/03:00pm 18.3 13.9 4.5 40 6.6 NNW 17 22 9 12 1020.7 1020.7 0.0
24/02:30pm 18.6 15.0 4.8 40 6.7 NW 13 20 7 11 1020.7 1020.7 0.0
24/02:00pm 18.1 14.6 5.3 43 6.2 NW 13 22 7 12 1021.1 1021.1 0.0
24/01:30pm 17.8 14.8 6.0 46 5.8 NNW 11 20 6 11 1021.4 1021.5 0.0
24/01:00pm 17.1 13.8 6.6 50 5.2 NNW 13 22 7 12 1021.9 1022.0 0.0
24/12:30pm 16.9 14.4 6.7 51 5.0 NNW 9 19 5 10 1022.3 1022.4 0.0
24/12:00pm 16.2 13.6 7.7 57 4.3 NNW 11 19 6 10 1022.9 1023.0 0.0
24/11:30am 15.8 13.3 8.1 60 3.9 NW 11 19 6 10 1023.2 1023.3 0.0
24/11:00am 15.1 13.0 8.3 64 3.4 NW 9 13 5 7 1023.6 1023.7 0.0
24/10:30am 13.7 11.3 8.5 71 2.6 NW 11 15 6 8 1023.7 1023.8 0.0
24/10:00am 12.0 10.0 8.5 79 1.7 WNW 9 11 5 6 1023.7 1023.8 0.0
24/09:30am 10.1 7.2 8.0 87 1.0 WNW 13 17 7 9 1023.7 1023.8 0.0
24/09:00am 8.3 5.6 7.5 95 0.4 WNW 11 15 6 8 1023.7 1023.8 0.0
24/08:30am 6.0 3.4 5.9 99 0.0 NW 9 13 5 7 1023.3 1023.4 0.0
24/08:00am 4.6 1.7 4.5 99 0.0 WNW 9 13 5 7 1022.7 1022.8 0.0
24/07:30am 3.6 1.1 3.5 99 0.0 NNW 6 9 3 5 1022.5 1022.6 0.0
24/07:08am 4.5 2.1 4.4 99 0.0 NNW 6 9 3 5 1022.3 1022.4 0.0
24/07:00am 3.9 1.4 3.8 99 0.0 NNW 6 7 3 4 1022.2 1022.3 0.0
24/06:52am 4.0 1.5 3.9 99 0.0 NNW 6 7 3 4 1022.2 1022.3 0.0
24/06:42am 3.9 1.8 3.8 99 0.0 NNW 4 6 2 3 1022.0 1022.1 0.0
24/06:30am 4.0 1.5 3.9 99 0.0 NNW 6 7 3 4 1022.1 1022.2 0.0
24/06:00am 3.8 0.7 3.7 99 0.0 N 9 9 5 5 1021.7 1021.8 0.0
24/05:37am 3.9 1.4 3.8 99 0.0 N 6 7 3 4 1021.5 1021.6 0.0
24/05:30am 3.9 2.1 3.6 98 0.1 NNE 2 7 1 4 1021.4 1021.5 0.0
24/05:00am 4.4 3.1 4.1 98 0.1 CALM 0 0 0 0 1021.3 1021.4 0.0
24/04:30am 5.9 3.8 5.8 99 0.0 NNW 6 9 3 5 1021.2 1021.2 0.0
24/04:00am 5.8 3.5 5.5 98 0.1 WNW 7 9 4 5 1021.0 1021.0 0.0
24/03:30am 6.5 3.5 6.2 98 0.1 NW 11 13 6 7 1021.1 1021.1 0.0
24/03:00am 6.7 3.8 6.4 98 0.1 WNW 11 13 6 7 1021.0 1021.0 0.0
24/02:30am 6.2 3.5 5.6 96 0.3 WNW 9 13 5 7 1020.8 1020.8 0.0
24/02:00am 6.8 4.6 6.2 96 0.3 WNW 7 11 4 6 1020.7 1020.7 0.0
24/01:30am 7.4 5.0 6.8 96 0.3 WNW 9 13 5 7 1020.7 1020.7 0.0
24/01:00am 7.5 5.1 6.9 96 0.3 WNW 9 11 5 6 1020.8 1020.8 0.0
24/12:30am 7.3 4.8 6.4 94 0.4 WNW 9 11 5 6 1020.7 1020.7 0.0
24/12:00am 7.6 5.1 6.7 94 0.4 NW 9 11 5 6 1020.6 1020.6 0.0
 
Date/Time
EST
Temp
°C
App
Temp
°C
Dew
Point
°C
Rel
Hum
%
Delta-T
°C
Wind Press
QNH
hPa
Press
MSL
hPa
Rain since
9am
mm
Dir  Spd
km/h
Gust
km/h
Spd
kts
Gust
kts
23/11:30pm 7.8 5.8 6.9 94 0.4 NW 7 9 4 5 1020.6 1020.6 0.0
23/11:00pm 8.3 5.9 7.1 92 0.6 WNW 9 11 5 6 1020.3 1020.3 0.0
23/10:30pm 8.6 6.5 6.7 88 0.9 WNW 7 9 4 5 1020.3 1020.3 0.0
23/10:00pm 10.9 8.7 8.0 82 1.4 SW 9 13 5 7 1019.9 1019.9 0.0
23/09:30pm 11.5 9.4 8.2 80 1.6 SW 9 13 5 7 1019.8 1019.8 0.0
23/09:00pm 11.9 9.4 8.2 78 1.8 SW 11 15 6 8 1019.5 1019.5 0.0
23/08:30pm 13.0 10.1 8.3 73 2.3 SW 13 19 7 10 1019.4 1019.4 0.0
23/08:00pm 13.4 11.0 8.5 72 2.4 SW 11 15 6 8 1019.1 1019.1 0.0
23/07:30pm 13.5 10.7 8.6 72 2.5 SSW 13 22 7 12 1018.9 1018.9 0.0
23/07:00pm 14.1 10.6 7.4 64 3.3 SSW 15 24 8 13 1018.4 1018.4 0.0
23/06:30pm 14.1 11.0 3.8 50 4.7 W 9 15 5 8 1017.9 1017.9 0.0
23/06:00pm 15.0 11.9 3.5 46 5.2 W 9 13 5 7 1017.4 1017.5 0.0
23/05:30pm 16.7 12.9 3.7 42 6.0 W 13 22 7 12 1017.2 1017.3 0.0
23/05:00pm 18.1 12.9 3.6 38 6.8 W 20 32 11 17 1016.9 1017.0 0.0
23/04:30pm 18.4 12.5 3.8 38 6.9 W 24 37 13 20 1016.7 1016.8 0.0
23/04:00pm 18.9 13.3 3.5 36 7.2 WSW 22 39 12 21 1016.5 1016.6 0.0
23/03:30pm 18.6 13.1 4.0 38 6.9 WSW 22 35 12 19 1016.5 1016.6 0.0
23/03:00pm 19.4 13.6 4.4 37 7.2 WSW 24 37 13 20 1016.4 1016.5 0.0
23/02:42pm 18.8 12.1 3.4 36 7.2 W 28 46 15 25 1016.4 1016.5 0.0
23/02:30pm 19.0 12.8 4.4 38 7.0 W 26 39 14 21 1016.2 1016.3 0.0
23/02:00pm 18.8 12.7 4.9 40 6.7 WSW 26 39 14 21 1016.2 1016.3 0.0
23/01:30pm 18.9 12.8 5.0 40 6.7 W 26 43 14 23 1016.4 1016.5 0.0
23/01:00pm 18.6 13.1 6.1 44 6.2 W 24 37 13 20 1016.8 1016.9 0.0
23/12:30pm 18.5 13.0 6.0 44 6.2 W 24 37 13 20 1017.4 1017.5 0.0
23/12:00pm 18.1 13.3 5.7 44 6.0 W 20 35 11 19 1017.8 1017.8 0.0
23/11:30am 17.7 13.2 6.3 47 5.6 WNW 19 28 10 15 1018.1 1018.1 0.0
23/11:00am 16.6 12.0 6.7 52 4.9 WNW 20 28 11 15 1018.1 1018.1 0.0

Other Formats:

Comma delimited format used in spreadsheet applications
http://www.bom.gov.au/fwo/IDN60801/IDN60801.94693.axf

JavaScript Object Notation format (JSON) in row-major order
http://www.bom.gov.au/fwo/IDN60801/IDN60801.94693.json